Tiempo atmosférico en la estación meteorológica de Haría, Las Palmas (277 m.)



Fecha
DESCASC
Temp. máxima en grados centígrados (hora)
DESCASC
Temp. mínima en grados centígrados (hora)
DESCASC
Temp. media en grados centígrados
DESCASC
Racha de viento máxima en m/sg (hora)
DESCASC
Velocidad máxima media en intervalos de 10 minutos(hora)
DESCASC
Precipitaciones diarias en mm
DESCASC
Precipitaciones de 00:00 a 06:00 en mm
DESCASC
Precipitaciones de 06:00 a 12:00 en mm
DESCASC
Precipitaciones de 12:00 a 18:00 en mm
DESCASC
Precipitaciones de 18:00 a 24:00 en mm
DESCASC
29-10-2020 21.8 (16:10) 17.4 (03:10) 19.6 10.56 (09:50) 6.94 (09:50) 0 0 0 0 0
28-10-2020 21.1 (11:00) 17.6 (06:50) 19.4 12.22 (13:00) 7.5 (10:40) 0 0 0 0 0
27-10-2020 21.1 (11:50) 17.4 (00:00) 19.3 10.56 (15:20) 7.5 (17:00) 0 0 0 0 0
26-10-2020 21.9 (13:10) 17.4 (00:00) 19.6 11.11 (12:50) 6.67 (12:30) 0 0 0 0 0
25-10-2020 21.8 (12:50) 16.9 (00:00) 19.3 10.83 (12:30) 6.67 (14:10) 0 0 0 0 0
24-10-2020 22 (15:10) 16.9 (00:00) 19.4 11.11 (10:50) 7.22 (10:40) 0 0 0 0 0
23-10-2020 21.9 (14:50) 15.3 (00:00) 18.6 11.11 (15:30) 5.56 (12:20) 0 0 0 0 0
22-10-2020 22.2 (14:40) 16.4 (00:00) 19.3 9.44 (16:10) 6.11 (13:10) 0 0 0 0 0
21-10-2020 22.8 (14:10) 18.6 (00:00) 20.7 11.94 (15:10) 8.33 (18:00) 0 0 0 0 0
20-10-2020 29.1 (12:50) 20 (00:00) 24.6 22.78 (13:50) 11.94 (11:30) 0 0 0 0 0
19-10-2020 25.7 (14:30) 15.3 (00:00) 20.5 8.33 (12:00) 5.83 (16:40) 0 0 0 0 0
18-10-2020 21.5 (16:00) 13.4 (00:00) 17.4 10 (14:00) 6.39 (13:30) 0 0 0 0 0
17-10-2020 22.2 (14:10) 15.4 (00:00) 18.8 11.39 (15:50) 4.72 (14:10) 0 0 0 0 0
16-10-2020 22.4 (15:20) 17.3 (00:00) 19.8 10.28 (17:50) 5.83 (14:50) 0 0 0 0 0
15-10-2020 23.2 (13:40) 18 (00:00) 20.6 9.17 (12:50) 6.11 (12:50) 0 0 0 0 0
14-10-2020 23.2 (13:30) 16.7 (00:00) 20 8.61 (19:30) 5.28 (17:00) 0 0 0 0 0
13-10-2020 26.5 (14:00) 18.8 (00:00) 22.6 11.11 (15:00) 5.83 (23:59) 0 0 0 0 0
12-10-2020 27.4 (14:10) 19.2 (00:00) 23.3 8.61 (04:50) 4.44 (05:20) 0 0 0 0 0
11-10-2020 23.4 (13:10) 19.1 (00:00) 21.3 8.06 (14:20) 5 (12:10) 0 0 0 0 0
10-10-2020 23 (13:10) 18.9 (00:00) 20.9 9.44 (11:20) 6.11 (15:40) 0 0 0 0 0
09-10-2020 25.8 (14:00) 19.3 (00:00) 22.5 10.56 (17:50) 6.39 (17:40) 0 0 0 0 0
08-10-2020 27.7 (16:50) 18.8 (00:00) 23.3 13.33 (21:50) 9.17 (21:40) 0 0 0 0 0
07-10-2020 25.2 (15:40) 18.8 (00:00) 22 8.33 (12:40) 4.72 (18:00) 0 0 0 0 0
06-10-2020 20.8 (12:40) 18.4 (00:00) 19.6 8.33 (15:30) 5.28 (10:00) 0 0 0 0 0
05-10-2020 22.9 (13:30) 18.2 (00:00) 20.6 10 (12:10) 6.67 (12:40) 0 0 0 0 0
04-10-2020 22.5 (14:10) 18.2 (00:00) 20.4 11.94 (15:40) 7.5 (15:20) 4.8 4.6 0.2 0 0
03-10-2020 23.3 (11:50) 19.2 (00:00) 21.3 15 (11:20) 9.44 (11:30) 1.8 0.2 0 0 1.6
02-10-2020 23.9 (14:00) 19.4 (00:00) 21.6 15.28 (16:20) 9.72 (15:10) 0 0 0 0 0
01-10-2020 23.4 (14:40) 19 (00:00) 21.2 11.39 (14:10) 6.94 (16:40) 0 0 0 0 0

Gráficas

Temp. máximas Temp. mínimas Temp. medias Precipitaciones Rachas de viento máximas Velocidades máximas media en intervalos de 10 minutos

Datos horarios

Fecha y hora oficial Temperatura (ºC) Velocidad del viento (km/h) Dirección del viento Racha (km/h) Dirección de racha Precipitación (mm) Presión (hPa) Tendencia (hPa) Humedad (%)
2020-10-30 23:00:00 21.2 5 Este 16 Nordeste 0 -- -- 54
2020-10-30 22:00:00 22 5 Nordeste 15 Norte 0 -- -- 41
2020-10-30 21:00:00 23 9 Norte 16 Norte 0 -- -- 27
2020-10-30 20:00:00 23.1 6 Norte 13 Nordeste 0 -- -- 25
2020-10-30 19:00:00 23.3 8 Norte 13 Nordeste 0 -- -- 25
2020-10-30 18:00:00 24.7 5 Este 11 Este 0 -- -- 23
2020-10-30 17:00:00 26 6 Este 17 Este 0 -- -- 24
2020-10-30 16:00:00 26.6 9 Sudeste 18 Sudeste 0 -- -- 22
2020-10-30 15:00:00 27 13 Sudeste 22 Sudeste 0 -- -- 17
2020-10-30 14:00:00 26.5 14 Sudeste 28 Este 0 -- -- 19
2020-10-30 13:00:00 26.1 18 Sudeste 33 Sudeste 0 -- -- 24
2020-10-30 12:00:00 26.4 18 Sudeste 34 Este 0 -- -- 24
2020-10-30 11:00:00 25.6 21 Sudeste 36 Sudeste 0 -- -- 33
2020-10-30 10:00:00 25.1 21 Sudeste 31 Sudeste 0 -- -- 34
2020-10-30 09:00:00 23.6 10 Este 19 Sudeste 0 -- -- 48
2020-10-30 08:00:00 20.8 8 Nordeste 17 Este 0 -- -- 62
2020-10-30 07:00:00 19.4 4 Nordeste 10 Nordeste 0 -- -- 73
2020-10-30 06:00:00 20 5 Nordeste 24 Nordeste 0 -- -- 69
2020-10-30 05:00:00 18.9 7 Noroeste 18 Nordeste 0 -- -- 71
2020-10-30 04:00:00 19.8 4 Noroeste 24 Este 0 -- -- 70
2020-10-30 03:00:00 19.1 8 Oeste 17 Noroeste 0 -- -- 75
2020-10-30 02:00:00 19.4 8 Noroeste 14 Noroeste 0 -- -- 72
2020-10-30 01:00:00 20.8 4 Norte 22 Norte 0 -- -- 61
2020-10-30 00:00:00 20.6 7 Norte 23 Norte 0 -- -- 63
2020-10-29 23:00:00 20.1 5 Noroeste 15 Norte 0 -- -- 70
2020-10-29 22:00:00 20.2 9 Noroeste 18 Norte 0 -- -- 67
2020-10-29 21:00:00 20.2 10 Norte 21 Norte 0 -- -- 67
2020-10-29 20:00:00 20.2 14 Norte 22 Norte 0 -- -- 65
2020-10-29 19:00:00 20.1 8 Noroeste 14 Norte 0 -- -- 72
2020-10-29 18:00:00 20.5 8 Norte 17 Norte 0 -- -- 68
2020-10-29 17:00:00 21.6 9 Nordeste 17 Nordeste 0 -- -- 69
2020-10-29 16:00:00 21.6 10 Nordeste 22 Nordeste 0 -- -- 73
2020-10-29 15:00:00 21.5 15 Nordeste 27 Nordeste 0 -- -- 77
2020-10-29 14:00:00 21.4 18 Nordeste 32 Nordeste 0 -- -- 76
2020-10-29 13:00:00 20.8 20 Nordeste 33 Nordeste 0 -- -- 77
2020-10-29 12:00:00 21.4 21 Nordeste 34 Norte 0 -- -- 75
2020-10-29 11:00:00 20.8 21 Norte 35 Norte 0 -- -- 79
2020-10-29 10:00:00 19.7 25 Norte 38 Norte 0 -- -- 83
2020-10-29 09:00:00 19.2 17 Norte 33 Norte 0 -- -- 85
2020-10-29 08:00:00 18.4 21 Norte 32 Norte 0 -- -- 87
2020-10-29 07:00:00 17.8 19 Norte 29 Norte 0 -- -- 87
2020-10-29 06:00:00 17.9 16 Norte 29 Norte 0 -- -- 87
2020-10-29 05:00:00 17.7 17 Norte 25 Norte 0 -- -- 86
2020-10-29 04:00:00 17.6 13 Norte 24 Norte 0 -- -- 85
2020-10-29 03:00:00 17.5 11 Norte 24 Norte 0 -- -- 85
2020-10-29 02:00:00 17.8 9 Norte 25 Norte 0 -- -- 85
2020-10-29 01:00:00 17.9 14 Norte 23 Norte 0 -- -- 85
2020-10-29 00:00:00 17.9 13 Norte 26 Norte 0 -- -- 84
2020-10-28 23:00:00 17.8 14 Norte 28 Nordeste 0 -- -- 81
2020-10-28 22:00:00 17.9 14 Norte 28 Norte 0 -- -- 81
2020-10-28 21:00:00 18.1 18 Nordeste 30 Nordeste 0 -- -- 79
2020-10-28 20:00:00 18.2 16 Nordeste 24 Norte 0 -- -- 85
2020-10-28 19:00:00 18.1 16 Norte 25 Norte 0 -- -- 81
2020-10-28 18:00:00 18.5 16 Norte 31 Nordeste 0 -- -- 79
2020-10-28 17:00:00 19 22 Norte 36 Norte 0 -- -- 75
2020-10-28 16:00:00 19.7 20 Norte 38 Norte 0 -- -- 69
2020-10-28 15:00:00 20 23 Norte 37 Nordeste 0 -- -- 66
2020-10-28 14:00:00 20.7 23 Norte 36 Norte 0 -- -- 63
2020-10-28 13:00:00 19.6 26 Nordeste 44 Norte 0 -- -- 67
2020-10-28 12:00:00 20.8 24 Norte 38 Nordeste 0 -- -- 63
2020-10-28 11:00:00 21.1 26 Norte 39 Nordeste 0 -- -- 57
2020-10-28 10:00:00 19.8 21 Norte 36 Norte 0 -- -- 65
2020-10-28 09:00:00 18.9 20 Norte 35 Norte 0 -- -- 65
2020-10-28 08:00:00 18 19 Norte 28 Norte 0 -- -- 76
2020-10-28 07:00:00 17.7 16 Norte 24 Norte 0 -- -- 76
2020-10-28 06:00:00 18 15 Norte 30 Norte 0 -- -- 67
2020-10-28 05:00:00 18.1 17 Norte 33 Norte 0 -- -- 71
2020-10-28 04:00:00 18 14 Norte 29 Norte 0 -- -- 67
2020-10-28 03:00:00 18 16 Norte 27 Norte 0 -- -- 73
2020-10-28 02:00:00 18.1 16 Norte 27 Noroeste 0 -- -- 73
2020-10-28 01:00:00 18 15 Norte 27 Norte 0 -- -- 79
2020-10-28 00:00:00 18.4 20 Norte 29 Norte 0 -- -- 70
2020-10-27 23:00:00 18.3 15 Norte 25 Norte 0 -- -- 74
2020-10-27 22:00:00 18.1 14 Norte 26 Norte 0 -- -- 85
2020-10-27 21:00:00 17.5 11 Norte 34 Norte 0 -- -- 87
2020-10-27 20:00:00 17.9 16 Norte 35 Norte 0 -- -- 83
2020-10-27 19:00:00 18.2 22 Norte 37 Norte 0 -- -- 77
2020-10-27 18:00:00 18.6 21 Norte 33 Norte 0 -- -- 73
2020-10-27 17:00:00 19 27 Norte 37 Norte 0 -- -- 70
2020-10-27 16:00:00 20.1 22 Norte 38 Norte 0 -- -- 66
2020-10-27 15:00:00 20.6 24 Norte 38 Norte 0 -- -- 57
2020-10-27 14:00:00 20.4 22 Norte 37 Norte 0 -- -- 63
2020-10-27 13:00:00 20.4 20 Norte 36 Norte 0 -- -- 65
2020-10-27 12:00:00 20.7 20 Nordeste 37 Nordeste 0 -- -- 65
2020-10-27 11:00:00 19.9 21 Nordeste 36 Norte 0 -- -- 70
2020-10-27 10:00:00 20.3 21 Norte 31 Nordeste 0 -- -- 65
2020-10-27 09:00:00 20.1 19 Norte 35 Norte 0 -- -- 63
2020-10-27 08:00:00 18.6 19 Norte 29 Norte 0 -- -- 71
2020-10-27 07:00:00 18.1 12 Norte 21 Norte 0 -- -- 80
2020-10-27 06:00:00 17.7 10 Norte 19 Norte 0 -- -- 83
2020-10-27 05:00:00 17.7 12 Norte 21 Norte 0 -- -- 83
2020-10-27 04:00:00 17.7 12 Norte 23 Norte 0 -- -- 84
2020-10-27 03:00:00 17.9 13 Norte 26 Norte 0 -- -- 85
2020-10-27 02:00:00 17.8 16 Norte 28 Norte 0 -- -- 83
2020-10-27 01:00:00 17.9 13 Norte 27 Norte 0 -- -- 85
2020-10-27 00:00:00 18.2 14 Norte 30 Norte 0 -- -- 84
2020-10-26 23:00:00 18.1 8 Norte 16 Norte 0 -- -- 89
2020-10-26 22:00:00 18.3 12 Norte 24 Norte 0 -- -- 87
2020-10-26 21:00:00 18.7 17 Norte 30 Norte 0 -- -- 88
2020-10-26 20:00:00 18.9 19 Norte 33 Norte 0 -- -- 88
2020-10-26 19:00:00 19.2 20 Norte 30 Norte 0 -- -- 84
2020-10-26 18:00:00 19.5 19 Norte 31 Norte 0 -- -- 81
2020-10-26 17:00:00 20.2 21 Norte 35 Norte 0 -- -- 75
2020-10-26 16:00:00 20.7 22 Norte 35 Norte 0 -- -- 71
2020-10-26 15:00:00 21.4 21 Norte 34 Nordeste 0 -- -- 67
2020-10-26 14:00:00 21.6 21 Nordeste 37 Nordeste 0 -- -- 65
2020-10-26 13:00:00 21.6 22 Nordeste 40 Nordeste 0 -- -- 66
2020-10-26 12:00:00 21.5 21 Nordeste 32 Nordeste 0 -- -- 67
2020-10-26 11:00:00 21.3 19 Nordeste 35 Nordeste 0 -- -- 67
2020-10-26 10:00:00 20.5 22 Nordeste 36 Nordeste 0 -- -- 69
2020-10-26 09:00:00 19.5 18 Nordeste 30 Nordeste 0 -- -- 71
2020-10-26 08:00:00 18.2 13 Nordeste 23 Norte 0 -- -- 77
2020-10-26 07:00:00 17.8 11 Norte 26 Nordeste 0 -- -- 79
2020-10-26 06:00:00 17.7 6 Norte 24 Norte 0 -- -- 80
2020-10-26 05:00:00 17.5 11 Norte 23 Nordeste 0 -- -- 80
2020-10-26 04:00:00 17.4 9 Nordeste 24 Nordeste 0 -- -- 79
2020-10-26 03:00:00 17.7 14 Norte 23 Norte 0 -- -- 79
2020-10-26 02:00:00 17.6 14 Norte 26 Norte 0 -- -- 78
2020-10-26 01:00:00 17.6 12 Nordeste 29 Norte 0 -- -- 79
2020-10-26 00:00:00 17.7 13 Norte 26 Nordeste 0 -- -- 79
2020-10-25 23:00:00 17.4 13 Nordeste 21 Nordeste 0 -- -- 77
2020-10-25 22:00:00 17.6 11 Nordeste 28 Nordeste 0 -- -- 77
2020-10-25 21:00:00 18.1 14 Norte 27 Nordeste 0 -- -- 76
2020-10-25 20:00:00 17.9 13 Norte 25 Norte 0 -- -- 76
2020-10-25 19:00:00 18.1 14 Norte 26 Norte 0 -- -- 75
2020-10-25 18:00:00 18.7 16 Norte 30 Nordeste 0 -- -- 72
2020-10-25 17:00:00 19.6 19 Nordeste 35 Nordeste 0 -- -- 69
2020-10-25 16:00:00 20.4 19 Norte 32 Norte 0 -- -- 67
2020-10-25 15:00:00 20.6 22 Norte 39 Norte 0 -- -- 65
2020-10-25 14:00:00 21.2 23 Nordeste 37 Nordeste 0 -- -- 64
2020-10-25 13:00:00 21.2 22 Norte 39 Nordeste 0 -- -- 63
2020-10-25 12:00:00 21.2 19 Norte 35 Nordeste 0 -- -- 65
2020-10-25 11:00:00 20.7 22 Nordeste 34 Nordeste 0 -- -- 65
2020-10-25 10:00:00 20.1 21 Nordeste 35 Nordeste 0 -- -- 68
2020-10-25 09:00:00 19.3 17 Norte 30 Norte 0 -- -- 71
2020-10-25 08:00:00 17.7 12 Norte 22 Nordeste 0 -- -- 76
2020-10-25 07:00:00 17.2 10 Norte 23 Norte 0 -- -- 79
2020-10-25 06:00:00 17.1 9 Norte 19 Nordeste 0 -- -- 78
2020-10-25 05:00:00 17.2 10 Nordeste 16 Nordeste 0 -- -- 80
2020-10-25 04:00:00 17 8 Nordeste 19 Nordeste 0 -- -- 79
2020-10-25 03:00:00 17.2 10 Nordeste 22 Nordeste 0 -- -- 78
2020-10-25 02:00:00 17.2 7 Nordeste 18 Norte 0 -- -- 78
2020-10-25 01:00:00 17.4 11 Nordeste 23 Nordeste 0 -- -- 77
2020-10-25 00:00:00 17.8 10 Norte 27 Norte 0 -- -- 78
2020-10-24 23:00:00 18 13 Norte 33 Nordeste 0 -- -- 80
2020-10-24 22:00:00 18.2 14 Nordeste 26 Norte 0 -- -- 81
2020-10-24 21:00:00 18.2 15 Nordeste 24 Norte 0 -- -- 82
2020-10-24 20:00:00 18.4 14 Norte 27 Nordeste 0 -- -- 82
2020-10-24 19:00:00 18.9 15 Nordeste 27 Nordeste 0 -- -- 77
2020-10-24 18:00:00 19.7 18 Nordeste 31 Nordeste 0 -- -- 74
2020-10-24 17:00:00 20.5 20 Nordeste 31 Nordeste 0 -- -- 70
2020-10-24 16:00:00 21 19 Nordeste 32 Norte 0 -- -- 66
2020-10-24 15:00:00 21.8 21 Nordeste 37 Nordeste 0 -- -- 56
2020-10-24 14:00:00 21.7 24 Nordeste 37 Nordeste 0 -- -- 66
2020-10-24 13:00:00 21 22 Nordeste 38 Nordeste 0 -- -- 70
2020-10-24 12:00:00 21 23 Nordeste 37 Este 0 -- -- 71
2020-10-24 11:00:00 20.1 25 Nordeste 40 Nordeste 0 -- -- 65
2020-10-24 10:00:00 19.4 21 Nordeste 32 Nordeste 0 -- -- 71
2020-10-24 09:00:00 17.9 14 Nordeste 27 Nordeste 0 -- -- 76
2020-10-24 08:00:00 17.3 10 Nordeste 23 Nordeste 0 -- -- 78
2020-10-24 07:00:00 17.2 15 Nordeste 25 Nordeste 0 -- -- 79
2020-10-24 06:00:00 17 10 Norte 18 Nordeste 0 -- -- 81
2020-10-24 05:00:00 17.1 10 Nordeste 22 Nordeste 0 -- -- 80
2020-10-24 04:00:00 17.2 14 Nordeste 22 Nordeste 0 -- -- 82
2020-10-24 03:00:00 17.1 7 Nordeste 20 Nordeste 0 -- -- 82
2020-10-24 02:00:00 17.4 10 Nordeste 23 Nordeste 0 -- -- 80
2020-10-24 01:00:00 17.4 10 Nordeste 25 Nordeste 0 -- -- 81
2020-10-24 00:00:00 17.8 9 Nordeste 22 Nordeste 0 -- -- 79
2020-10-23 23:00:00 17.8 12 Nordeste 20 Nordeste 0 -- -- 76
2020-10-23 22:00:00 18.2 12 Nordeste 22 Nordeste 0 -- -- 75
2020-10-23 21:00:00 18.2 14 Nordeste 26 Nordeste 0 -- -- 74
2020-10-23 20:00:00 18.4 11 Nordeste 23 Nordeste 0 -- -- 74
2020-10-23 19:00:00 18.9 15 Nordeste 24 Norte 0 -- -- 70
2020-10-23 18:00:00 19.8 14 Nordeste 28 Nordeste 0 -- -- 65
2020-10-23 17:00:00 20.6 16 Nordeste 30 Nordeste 0 -- -- 61
2020-10-23 16:00:00 20.8 16 Nordeste 40 Nordeste 0 -- -- 60
2020-10-23 15:00:00 21.7 19 Nordeste 31 Este 0 -- -- 54
2020-10-23 14:00:00 21.7 18 Nordeste 32 Nordeste 0 -- -- 55
2020-10-23 13:00:00 20.7 18 Nordeste 35 Nordeste 0 -- -- 57
2020-10-23 12:00:00 20.3 17 Nordeste 32 Nordeste 0 -- -- 59
2020-10-23 11:00:00 20.7 17 Nordeste 28 Nordeste 0 -- -- 59
2020-10-23 10:00:00 19.4 16 Nordeste 24 Nordeste 0 -- -- 67
2020-10-23 09:00:00 17.9 11 Nordeste 21 Norte 0 -- -- 71
2020-10-23 08:00:00 17.2 15 Norte 23 Noroeste 0 -- -- 71
2020-10-23 07:00:00 17.1 12 Noroeste 21 Norte 0 -- -- 73
2020-10-23 06:00:00 16.9 10 Noroeste 19 Norte 0 -- -- 78
2020-10-23 05:00:00 17.1 9 Norte 16 Norte 0 -- -- 79
2020-10-23 04:00:00 15.5 9 Noroeste 14 Noroeste 0 -- -- 86
2020-10-23 03:00:00 16.2 10 Noroeste 23 Norte 0 -- -- 82
2020-10-23 02:00:00 15.5 7 Noroeste 11 Noroeste 0 -- -- 81
2020-10-23 01:00:00 16.5 4 Noroeste 9 Noroeste 0 -- -- 81
2020-10-23 00:00:00 16.5 5 Noroeste 12 Noroeste 0 -- -- 78
2020-10-22 23:00:00 16.8 6 Noroeste 13 Noroeste 0 -- -- 76
2020-10-22 22:00:00 17.9 7 Noroeste 15 Norte 0 -- -- 75
2020-10-22 21:00:00 18.1 8 Norte 19 Norte 0 -- -- 74
2020-10-22 20:00:00 18.6 10 Norte 21 Norte 0 -- -- 70
2020-10-22 19:00:00 19.6 13 Noroeste 24 Noroeste 0 -- -- 69
2020-10-22 18:00:00 20.5 15 Noroeste 26 Noroeste 0 -- -- 62
2020-10-22 17:00:00 21.1 18 Noroeste 34 Noroeste 0 -- -- 64
2020-10-22 16:00:00 21.5 21 Noroeste 32 Noroeste 0 -- -- 61
2020-10-22 15:00:00 21.9 17 Noroeste 28 Noroeste 0 -- -- 61
2020-10-22 14:00:00 21.9 16 Oeste 31 Noroeste 0 -- -- 59
2020-10-22 13:00:00 21.6 21 Noroeste 33 Noroeste 0 -- -- 68
2020-10-22 12:00:00 21.6 14 Noroeste 31 Noroeste 0 -- -- 64
2020-10-22 11:00:00 20.3 14 Noroeste 27 Noroeste 0 -- -- 70
2020-10-22 10:00:00 20.1 15 Noroeste 26 Oeste 0 -- -- 72
2020-10-22 09:00:00 19.4 12 Noroeste 28 Noroeste 0 -- -- 76
2020-10-22 08:00:00 18.6 18 Noroeste 28 Oeste 0 -- -- 79
2020-10-22 07:00:00 18.6 14 Noroeste 31 Noroeste 0 -- -- 80
2020-10-22 06:00:00 18.6 18 Noroeste 29 Oeste 0 -- -- 81
2020-10-22 05:00:00 18.5 12 Noroeste 28 Noroeste 0 -- -- 81
2020-10-22 04:00:00 18.6 16 Noroeste 26 Oeste 0 -- -- 81
2020-10-22 03:00:00 18.8 13 Noroeste 26 Oeste 0 -- -- 83
2020-10-22 02:00:00 18.9 14 Oeste 27 Oeste 0 -- -- 80
2020-10-22 01:00:00 19 13 Noroeste 21 Oeste 0 -- -- 85
2020-10-22 00:00:00 18.9 11 Oeste 26 Oeste 0 -- -- 86
2020-10-21 23:00:00 18.6 14 Oeste 26 Noroeste 0 -- -- 86
2020-10-21 22:00:00 19 14 Noroeste 32 Oeste 0 -- -- 84
2020-10-21 21:00:00 19.1 15 Noroeste 36 Oeste 0 -- -- 84
2020-10-21 20:00:00 19.6 22 Noroeste 33 Noroeste 0 -- -- 80
2020-10-21 19:00:00 19.7 22 Noroeste 40 Oeste 0 -- -- 77
2020-10-21 18:00:00 20.1 30 Oeste 42 Oeste 0 -- -- 81
2020-10-21 17:00:00 20.7 24 Oeste 37 Oeste 0 -- -- 79
2020-10-21 16:00:00 20.9 23 Oeste 43 Oeste 0 -- -- 75
2020-10-21 15:00:00 22.4 26 Oeste 40 Oeste 0 -- -- 70
2020-10-21 14:00:00 22.7 21 Oeste 36 Oeste 0 -- -- 67
2020-10-21 13:00:00 22.5 24 Oeste 40 Oeste 0 -- -- 68
2020-10-21 12:00:00 21.5 19 Oeste 29 Oeste 0 -- -- 76
2020-10-21 11:00:00 20.7 18 Oeste 34 Oeste 0 -- -- 76
2020-10-21 10:00:00 20.8 14 Sudoeste 26 Sudoeste 0 -- -- 80
2020-10-21 09:00:00 19.9 10 Sudoeste 21 Sudoeste 0 -- -- 83
2020-10-21 08:00:00 19.7 4 Sudoeste 21 Oeste 0 -- -- 83
2020-10-21 07:00:00 19.7 6 Oeste 19 Oeste 0 -- -- 84
2020-10-21 06:00:00 19.7 7 Oeste 23 Oeste 0 -- -- 84
2020-10-21 05:00:00 19.8 15 Oeste 26 Noroeste 0 -- -- 85
2020-10-21 04:00:00 19.8 23 Noroeste 33 Oeste 0 -- -- 84
2020-10-21 03:00:00 19.8 9 Oeste 28 Oeste 0 -- -- 82
2020-10-21 02:00:00 20 16 Oeste 30 Oeste 0 -- -- 77
2020-10-21 01:00:00 20 13 Noroeste 35 Noroeste 0 -- -- 77
2020-10-21 00:00:00 20 26 Noroeste 48 Noroeste 0 -- -- 88
2020-10-20 23:00:00 20.4 30 Noroeste 44 Noroeste 0 -- -- 89
2020-10-20 22:00:00 20.5 26 Oeste 41 Noroeste 0 -- -- 91
2020-10-20 21:00:00 20.6 22 Oeste 37 Oeste 0 -- -- 91
2020-10-20 20:00:00 20.6 23 Oeste 45 Oeste 0 -- -- 90
2020-10-20 19:00:00 20.9 33 Oeste 62 Noroeste 0 -- -- 91
2020-10-20 18:00:00 22 26 Oeste 51 Oeste 0 -- -- 86
2020-10-20 17:00:00 23.3 30 Oeste 60 Sudoeste 0 -- -- 78
2020-10-20 16:00:00 22.9 33 Oeste 74 Sudoeste 0 -- -- 74
2020-10-20 15:00:00 24.6 31 Sudoeste 80 Sudoeste 0 -- -- 62
2020-10-20 14:00:00 27 33 Sudoeste 82 Sudoeste 0 -- -- 48
2020-10-20 13:00:00 29 33 Sudoeste 60 Sudoeste 0 -- -- 41
2020-10-20 12:00:00 28.1 41 Sudoeste 63 Sudoeste 0 -- -- 43
2020-10-20 11:00:00 27.5 31 Sudoeste 55 Sudoeste 0 -- -- 44
2020-10-20 10:00:00 27.2 30 Sudoeste 40 Sudoeste 0 -- -- 45
2020-10-20 09:00:00 25.6 24 Sudoeste 37 Sudoeste 0 -- -- 51
2020-10-20 08:00:00 24.9 28 Sudoeste 57 Oeste 0 -- -- 54
2020-10-20 07:00:00 23.2 32 Oeste 50 Oeste 0 -- -- 64
2020-10-20 06:00:00 23.8 35 Sudoeste 54 Sudoeste 0 -- -- 64
2020-10-20 05:00:00 22.3 18 Sur 45 Sur 0 -- -- 72
2020-10-20 04:00:00 22.1 11 Este 26 Este 0 -- -- 68
2020-10-20 03:00:00 22.5 12 Sudeste 33 Sudeste 0 -- -- 66
2020-10-20 02:00:00 23.3 21 Sur 34 Sur 0 -- -- 63
2020-10-20 01:00:00 23.2 16 Sur 28 Sur 0 -- -- 65
2020-10-20 00:00:00 21.8 8 Este 14 Este 0 -- -- 72
2020-10-19 23:00:00 21.6 2 Nordeste 12 Sudoeste 0 -- -- 74
2020-10-19 22:00:00 21.8 3 Noroeste 13 Sudoeste 0 -- -- 73
2020-10-19 21:00:00 20.9 6 Oeste 8 Oeste 0 -- -- 80
2020-10-19 20:00:00 21.1 2 Sur 10 Oeste 0 -- -- 80
2020-10-19 19:00:00 21.3 4 Norte 15 Este 0 -- -- 79
2020-10-19 18:00:00 22 11 Este 23 Este 0 -- -- 76
2020-10-19 17:00:00 23.5 19 Sudeste 29 Sudeste 0 -- -- 71
2020-10-19 16:00:00 24.9 17 Sudeste 24 Sudeste 0 -- -- 66
2020-10-19 15:00:00 25.6 10 Oeste 25 Oeste 0 -- -- 58
2020-10-19 14:00:00 25.3 8 Noroeste 24 Noroeste 0 -- -- 59
2020-10-19 13:00:00 24.6 11 Oeste 23 Sudeste 0 -- -- 62
2020-10-19 12:00:00 24.4 17 Sudeste 30 Sudeste 0 -- -- 66
2020-10-19 11:00:00 22.8 16 Sudeste 24 Sudeste 0 -- -- 71
2020-10-19 10:00:00 20.5 6 Sudeste 11 Este 0 -- -- 81
2020-10-19 09:00:00 17.7 2 Nordeste 12 Noroeste 0 -- -- 89
2020-10-19 08:00:00 15.5 5 Noroeste 13 Oeste 0 -- -- 86
2020-10-19 07:00:00 16.5 0 Calma 12 Oeste 0 -- -- 89
2020-10-19 06:00:00 16.1 3 Noroeste 13 Oeste 0 -- -- 88
2020-10-19 05:00:00 16.2 3 Noroeste 7 Oeste 0 -- -- 88
2020-10-19 04:00:00 17.1 2 Noroeste 8 Sudoeste 0 -- -- 89
2020-10-19 03:00:00 17.5 0 Calma 15 Sudoeste 0 -- -- 88
2020-10-19 02:00:00 16.9 2 Sur 13 Sudoeste 0 -- -- 89
2020-10-19 01:00:00 15.9 8 Noroeste 9 Noroeste 0 -- -- 88
2020-10-19 00:00:00 16.9 2 Norte 4 Noroeste 0 -- -- 86
2020-10-18 23:00:00 17.5 4 Sudeste 8 Noroeste 0 -- -- 85
2020-10-18 22:00:00 17.1 3 Norte 8 Oeste 0 -- -- 84
2020-10-18 21:00:00 17.6 5 Oeste 15 Sur 0 -- -- 82
2020-10-18 20:00:00 18.1 11 Sudeste 18 Sudeste 0 -- -- 79
2020-10-18 19:00:00 18.9 11 Sudeste 21 Este 0 -- -- 75
2020-10-18 18:00:00 20.1 12 Sudeste 21 Sudeste 0 -- -- 70
2020-10-18 17:00:00 20.6 15 Sudeste 25 Sudeste 0 -- -- 67
2020-10-18 16:00:00 21.5 16 Sudeste 28 Este 0 -- -- 65
2020-10-18 15:00:00 21 20 Sudeste 32 Este 0 -- -- 66
2020-10-18 14:00:00 21.2 21 Este 36 Este 0 -- -- 67
2020-10-18 13:00:00 20.9 21 Sudeste 31 Sudeste 0 -- -- 69
2020-10-18 12:00:00 19.9 20 Este 26 Sudeste 0 -- -- 74
2020-10-18 11:00:00 20 14 Sudeste 22 Este 0 -- -- 74
2020-10-18 10:00:00 18.1 7 Sudeste 14 Sudeste 0 -- -- 85
2020-10-18 09:00:00 15.2 2 Sudeste 7 Oeste 0 -- -- 90
2020-10-18 08:00:00 14.1 3 Oeste 9 Noroeste 0 -- -- 90
2020-10-18 07:00:00 13.6 4 Oeste 9 Noroeste 0 -- -- 92
2020-10-18 06:00:00 14 5 Oeste 10 Noroeste 0 -- -- 92
2020-10-18 05:00:00 14.1 6 Noroeste 8 Noroeste 0 -- -- 90
2020-10-18 04:00:00 14.3 6 Noroeste 8 Noroeste 0 -- -- 90
2020-10-18 03:00:00 14.7 5 Noroeste 7 Noroeste 0 -- -- 88
2020-10-18 02:00:00 14.9 0 Calma 8 Noroeste 0 -- -- 87
2020-10-18 01:00:00 15.4 6 Noroeste 8 Noroeste 0 -- -- 85
2020-10-18 00:00:00 15.9 0 Calma 4 Noroeste 0 -- -- 83
2020-10-17 23:00:00 16.5 0 Calma 5 Norte 0 -- -- 80
2020-10-17 22:00:00 17 2 Norte 6 Nordeste 0 -- -- 77
2020-10-17 21:00:00 17.6 0 Calma 6 Este 0 -- -- 77
2020-10-17 20:00:00 18 5 Nordeste 13 Nordeste 0 -- -- 75
2020-10-17 19:00:00 19 10 Nordeste 19 Nordeste 0 -- -- 70
2020-10-17 18:00:00 19.8 13 Nordeste 20 Nordeste 0 -- -- 65
2020-10-17 17:00:00 19.8 14 Nordeste 25 Nordeste 0 -- -- 70
2020-10-17 16:00:00 20.9 11 Norte 41 Norte 0 -- -- 68
2020-10-17 15:00:00 21.2 14 Este 30 Nordeste 0 -- -- 65
2020-10-17 14:00:00 21.6 14 Nordeste 24 Este 0 -- -- 63
2020-10-17 13:00:00 20.4 10 Nordeste 22 Este 0 -- -- 70
2020-10-17 12:00:00 20.2 12 Nordeste 22 Nordeste 0 -- -- 69
2020-10-17 11:00:00 20.2 12 Nordeste 25 Este 0 -- -- 75
2020-10-17 10:00:00 18.1 7 Nordeste 21 Norte 0 -- -- 86
2020-10-17 09:00:00 18.2 5 Nordeste 17 Norte 0 -- -- 87
2020-10-17 08:00:00 17.2 9 Noroeste 14 Noroeste 0 -- -- 86
2020-10-17 07:00:00 17.6 5 Norte 13 Norte 0 -- -- 86
2020-10-17 06:00:00 17.5 8 Noroeste 18 Oeste 0 -- -- 85
2020-10-17 05:00:00 16.4 8 Noroeste 12 Noroeste 0 -- -- 86
2020-10-17 04:00:00 15.4 8 Noroeste 12 Noroeste 0 -- -- 85
2020-10-17 03:00:00 16 7 Noroeste 12 Noroeste 0 -- -- 82
2020-10-17 02:00:00 17.5 7 Norte 11 Norte 0 -- -- 80
2020-10-17 01:00:00 17.9 7 Norte 13 Norte 0 -- -- 79
2020-10-17 00:00:00 18.1 5 Norte 14 Noroeste 0 -- -- 78
2020-10-16 23:00:00 18 8 Norte 13 Norte 0 -- -- 77
2020-10-16 22:00:00 18.4 7 Norte 19 Nordeste 0 -- -- 77
2020-10-16 21:00:00 18.4 8 Norte 20 Norte 0 -- -- 76
2020-10-16 20:00:00 18.8 13 Norte 25 Norte 0 -- -- 74
2020-10-16 19:00:00 19.5 16 Norte 26 Norte 0 -- -- 72
2020-10-16 18:00:00 20.2 17 Norte 37 Nordeste 0 -- -- 71
2020-10-16 17:00:00 21.4 14 Norte 30 Nordeste 0 -- -- 65
2020-10-16 16:00:00 21.8 17 Norte 30 Norte 0 -- -- 66
2020-10-16 15:00:00 22 17 Norte 33 Nordeste 0 -- -- 62
2020-10-16 14:00:00 22.3 16 Norte 30 Nordeste 0 -- -- 64
2020-10-16 13:00:00 21.2 18 Nordeste 30 Nordeste 0 -- -- 67
2020-10-16 12:00:00 20.8 15 Nordeste 26 Nordeste 0 -- -- 71
2020-10-16 11:00:00 20.8 13 Nordeste 23 Nordeste 0 -- -- 70
2020-10-16 10:00:00 20.3 12 Nordeste 21 Nordeste 0 -- -- 74
2020-10-16 09:00:00 19 8 Nordeste 16 Nordeste 0 -- -- 80
2020-10-16 08:00:00 17.4 0 Calma 10 Nordeste 0 -- -- 85
2020-10-16 07:00:00 17.4 3 Este 8 Nordeste 0 -- -- 84
2020-10-16 06:00:00 17.7 5 Nordeste 14 Norte 0 -- -- 83
2020-10-16 05:00:00 17.8 4 Nordeste 12 Norte 0 -- -- 84
2020-10-16 04:00:00 17.9 9 Nordeste 16 Nordeste 0 -- -- 83
2020-10-16 03:00:00 18 8 Nordeste 15 Nordeste 0 -- -- 82
2020-10-16 02:00:00 17.8 5 Nordeste 16 Norte 0 -- -- 83
2020-10-16 01:00:00 18.1 10 Nordeste 19 Nordeste 0 -- -- 83
2020-10-16 00:00:00 18.5 10 Nordeste 17 Nordeste 0 -- -- 83
2020-10-15 23:00:00 18.5 7 Norte 17 Nordeste 0 -- -- 83
2020-10-15 22:00:00 18.8 14 Nordeste 21 Nordeste 0 -- -- 82
2020-10-15 21:00:00 18.8 13 Norte 22 Norte 0 -- -- 82
2020-10-15 20:00:00 19.2 12 Norte 25 Norte 0 -- -- 82
2020-10-15 19:00:00 19.8 13 Nordeste 23 Nordeste 0 -- -- 77
2020-10-15 18:00:00 20.6 17 Nordeste 30 Nordeste 0 -- -- 73
2020-10-15 17:00:00 21.2 18 Nordeste 30 Nordeste 0 -- -- 70
2020-10-15 16:00:00 21.9 17 Nordeste 30 Nordeste 0 -- -- 67
2020-10-15 15:00:00 22.5 16 Este 33 Este 0 -- -- 64
2020-10-15 14:00:00 22.5 18 Este 33 Este 0 -- -- 65
2020-10-15 13:00:00 22.4 17 Este 33 Este 0 -- -- 67
2020-10-15 12:00:00 21.3 16 Nordeste 33 Este 0 -- -- 70
2020-10-15 11:00:00 20.2 19 Nordeste 29 Norte 0 -- -- 74
2020-10-15 10:00:00 19.5 17 Nordeste 27 Nordeste 0 -- -- 76
2020-10-15 09:00:00 18.9 11 Nordeste 22 Nordeste 0 -- -- 80
2020-10-15 08:00:00 18.3 13 Nordeste 22 Nordeste 0 -- -- 81
2020-10-15 07:00:00 18.2 12 Nordeste 24 Este 0 -- -- 80
2020-10-15 06:00:00 18.2 12 Nordeste 28 Nordeste 0 -- -- 79
2020-10-15 05:00:00 18.7 19 Nordeste 26 Nordeste 0 -- -- 82
2020-10-15 04:00:00 19.3 12 Este 25 Nordeste 0 -- -- 81
2020-10-15 03:00:00 19.2 14 Nordeste 23 Nordeste 0 -- -- 81
2020-10-15 02:00:00 19.2 13 Este 26 Nordeste 0 -- -- 85
2020-10-15 01:00:00 19.3 12 Este 25 Nordeste 0 -- -- 80
2020-10-15 00:00:00 19 16 Nordeste 28 Nordeste 0 -- -- 82
2020-10-14 23:00:00 18.8 13 Nordeste 30 Nordeste 0 -- -- 84
2020-10-14 22:00:00 19.1 16 Nordeste 28 Nordeste 0 -- -- 84
2020-10-14 21:00:00 19 17 Nordeste 28 Nordeste 0 -- -- 84
2020-10-14 20:00:00 19.1 17 Norte 31 Norte 0 -- -- 83
2020-10-14 19:00:00 19.8 18 Norte 27 Norte 0 -- -- 78
2020-10-14 18:00:00 21 17 Norte 30 Norte 0 -- -- 74
2020-10-14 17:00:00 21.9 19 Nordeste 30 Norte 0 -- -- 70
2020-10-14 16:00:00 22.2 17 Nordeste 29 Nordeste 0 -- -- 69
2020-10-14 15:00:00 22.8 16 Nordeste 28 Nordeste 0 -- -- 68
2020-10-14 14:00:00 22.9 15 Nordeste 26 Nordeste 0 -- -- 63
2020-10-14 13:00:00 23.1 14 Nordeste 25 Nordeste 0 -- -- 64
2020-10-14 12:00:00 22.7 13 Norte 22 Norte 0 -- -- 66
2020-10-14 11:00:00 21.8 9 Nordeste 22 Este 0 -- -- 65
2020-10-14 10:00:00 20 8 Nordeste 14 Norte 0 -- -- 90
2020-10-14 09:00:00 18.3 4 Norte 10 Noroeste 0 -- -- 95
2020-10-14 08:00:00 17.5 3 Noroeste 7 Noroeste 0 -- -- 93
2020-10-14 07:00:00 17.3 3 Noroeste 6 Noroeste 0 -- -- 93
2020-10-14 06:00:00 17.9 2 Norte 10 Este 0 -- -- 92
2020-10-14 05:00:00 17.9 5 Este 10 Nordeste 0 -- -- 91
2020-10-14 04:00:00 18 4 Nordeste 10 Nordeste 0 -- -- 91
2020-10-14 03:00:00 18.2 5 Nordeste 20 Nordeste 0 -- -- 91
2020-10-14 02:00:00 18.6 11 Nordeste 20 Nordeste 0 -- -- 91
2020-10-14 01:00:00 18.7 12 Norte 29 Norte 0 -- -- 90
2020-10-14 00:00:00 18.9 21 Norte 29 Norte 0 -- -- 88
2020-10-13 23:00:00 18.9 11 Norte 24 Noroeste 0 -- -- 88
2020-10-13 22:00:00 19.3 7 Noroeste 15 Nordeste 0 -- -- 89
2020-10-13 21:00:00 19.6 8 Norte 18 Norte 0 -- -- 87
2020-10-13 20:00:00 20.1 9 Norte 18 Norte 0 -- -- 83
2020-10-13 19:00:00 21.1 13 Norte 22 Nordeste 0 -- -- 73
2020-10-13 18:00:00 23.1 14 Nordeste 22 Norte 0 -- -- 57
2020-10-13 17:00:00 24.6 13 Nordeste 22 Nordeste 0 -- -- 45
2020-10-13 16:00:00 25.3 14 Nordeste 24 Nordeste 0 -- -- 44
2020-10-13 15:00:00 26.5 16 Este 40 Este 0 -- -- 42
2020-10-13 14:00:00 26.5 15 Este 24 Nordeste 0 -- -- 42
2020-10-13 13:00:00 25.4 16 Nordeste 25 Nordeste 0 -- -- 44
2020-10-13 12:00:00 24.8 14 Nordeste 22 Nordeste 0 -- -- 51
2020-10-13 11:00:00 24.1 12 Nordeste 21 Nordeste 0 -- -- 53
2020-10-13 10:00:00 22.7 8 Nordeste 19 Norte 0 -- -- 66
2020-10-13 09:00:00 20.9 10 Noroeste 19 Norte 0 -- -- 75
2020-10-13 08:00:00 20 12 Noroeste 25 Noroeste 0 -- -- 77
2020-10-13 07:00:00 20.3 11 Noroeste 24 Norte 0 -- -- 74
2020-10-13 06:00:00 20.7 14 Norte 23 Norte 0 -- -- 66
2020-10-13 05:00:00 20.6 12 Norte 23 Norte 0 -- -- 68
2020-10-13 04:00:00 20 10 Noroeste 18 Noroeste 0 -- -- 77
2020-10-13 03:00:00 20.4 10 Noroeste 18 Norte 0 -- -- 75
2020-10-13 02:00:00 20.9 9 Norte 22 Norte 0 -- -- 73
2020-10-13 01:00:00 21.2 11 Norte 19 Norte 0 -- -- 71
2020-10-13 00:00:00 -- -- -- -- -- -- -- -- --
2020-10-12 23:00:00 21.8 12 Norte 19 Noroeste 0 -- -- 63
2020-10-12 22:00:00 21.7 9 Noroeste 18 Noroeste 0 -- -- 65
2020-10-12 21:00:00 22 12 Norte 20 Norte 0 -- -- 64
2020-10-12 20:00:00 21.8 10 Norte 17 Norte 0 -- -- 67
2020-10-12 19:00:00 22.7 9 Norte 15 Norte 0 -- -- 72
2020-10-12 18:00:00 24.5 8 Norte 18 Nordeste 0 -- -- 62
2020-10-12 17:00:00 -- -- -- -- -- -- -- -- --
2020-10-12 16:00:00 26.5 11 Nordeste 19 Nordeste 0 -- -- 46
2020-10-12 15:00:00 26.9 13 Nordeste 22 Nordeste 0 -- -- 51
2020-10-12 14:00:00 27.3 11 Nordeste 22 Nordeste 0 -- -- 49
2020-10-12 13:00:00 26.7 12 Nordeste 22 Este 0 -- -- 50
2020-10-12 12:00:00 26.3 10 Nordeste 18 Este 0 -- -- 53
2020-10-12 11:00:00 24.7 9 Nordeste 17 Nordeste 0 -- -- 61
2020-10-12 10:00:00 23.3 7 Norte 17 Oeste 0 -- -- 69
2020-10-12 09:00:00 21.9 10 Noroeste 19 Noroeste 0 -- -- 71
2020-10-12 08:00:00 20.9 11 Noroeste 22 Norte 0 -- -- 71
2020-10-12 07:00:00 21.1 11 Noroeste 23 Norte 0 -- -- 69
2020-10-12 06:00:00 20.9 10 Noroeste 29 Norte 0 -- -- 69
2020-10-12 05:00:00 20.6 13 Norte 31 Norte 0 -- -- 75
2020-10-12 04:00:00 19.9 9 Noroeste 24 Norte 0 -- -- 83
2020-10-12 03:00:00 -- -- -- -- -- -- -- -- --
2020-10-12 02:00:00 19.3 14 Noroeste 21 Noroeste 0 -- -- 94
2020-10-12 01:00:00 19.3 10 Noroeste 19 Noroeste 0 -- -- 95
2020-10-12 00:00:00 19.3 10 Noroeste 17 Noroeste 0 -- -- 95
2020-10-11 23:00:00 19.6 6 Norte 16 Norte 0 -- -- 94
2020-10-11 22:00:00 19.8 9 Nordeste 21 Norte 0 -- -- 93
2020-10-11 21:00:00 20 8 Nordeste 17 Norte 0 -- -- 92
2020-10-11 20:00:00 -- -- -- -- -- -- -- -- --
2020-10-11 19:00:00 -- -- -- -- -- -- -- -- --
2020-10-11 18:00:00 21.3 14 Nordeste 26 Nordeste 0 -- -- 86
2020-10-11 17:00:00 22.3 17 Nordeste 29 Nordeste 0 -- -- 81
2020-10-11 16:00:00 22.8 15 Nordeste 24 Nordeste 0 -- -- 81
2020-10-11 15:00:00 22.9 14 Nordeste 29 Nordeste 0 -- -- 79
2020-10-11 14:00:00 22.8 16 Nordeste 26 Nordeste 0 -- -- 78
2020-10-11 13:00:00 23.1 17 Nordeste 28 Nordeste 0 -- -- 79
2020-10-11 12:00:00 22.7 17 Nordeste 26 Nordeste 0 -- -- 82
2020-10-11 11:00:00 21.3 13 Nordeste 25 Norte 0 -- -- 88
2020-10-11 10:00:00 20.4 15 Nordeste 24 Nordeste 0 -- -- 91
2020-10-11 09:00:00 19.7 12 Nordeste 25 Nordeste 0 -- -- 93
2020-10-11 08:00:00 19.2 12 Nordeste 22 Nordeste 0 -- -- 93
2020-10-11 07:00:00 19.2 10 Nordeste 18 Nordeste 0 -- -- 94
2020-10-11 06:00:00 19.3 7 Nordeste 23 Nordeste 0 -- -- 94
2020-10-11 05:00:00 19.4 8 Este 22 Nordeste 0 -- -- 94
2020-10-11 04:00:00 19.3 7 Nordeste 20 Nordeste 0 -- -- 93
2020-10-11 03:00:00 19.5 12 Nordeste 22 Nordeste 0 -- -- 93
2020-10-11 02:00:00 19.5 12 Nordeste 23 Norte 0 -- -- 92
2020-10-11 01:00:00 19.6 10 Nordeste 24 Nordeste 0 -- -- 91
2020-10-11 00:00:00 19.7 10 Nordeste 25 Nordeste 0 -- -- 89
2020-10-10 23:00:00 19.7 12 Nordeste 23 Nordeste 0 -- -- 89
2020-10-10 22:00:00 19.8 13 Nordeste 26 Norte 0 -- -- 89
2020-10-10 21:00:00 19.9 14 Nordeste 27 Nordeste 0 -- -- 88
2020-10-10 20:00:00 19.9 11 Nordeste 26 Norte 0 -- -- 87
2020-10-10 19:00:00 20.3 14 Norte 30 Nordeste 0 -- -- 84
2020-10-10 18:00:00 20.9 19 Norte 32 Norte 0 -- -- 82
2020-10-10 17:00:00 21.5 19 Nordeste 34 Norte 0 -- -- 79
2020-10-10 16:00:00 22 21 Nordeste 34 Nordeste 0 -- -- 76
2020-10-10 15:00:00 22.4 17 Nordeste 33 Nordeste 0 -- -- 75
2020-10-10 14:00:00 22.5 20 Nordeste 33 Nordeste 0 -- -- 76
2020-10-10 13:00:00 22.7 20 Nordeste 32 Nordeste 0 -- -- 73
2020-10-10 12:00:00 21.7 19 Norte 34 Norte 0 -- -- 77
2020-10-10 11:00:00 20.9 18 Norte 30 Norte 0 -- -- 81
2020-10-10 10:00:00 20.5 14 Norte 30 Nordeste 0 -- -- 84
2020-10-10 09:00:00 19.6 12 Norte 22 Norte 0 -- -- 88
2020-10-10 08:00:00 19.2 13 Norte 24 Norte 0 -- -- 88
2020-10-10 07:00:00 19.1 13 Norte 24 Norte 0 -- -- 89
2020-10-10 06:00:00 19.1 13 Norte 27 Norte 0 -- -- 89
2020-10-10 05:00:00 19 16 Norte 27 Norte 0 -- -- 90
2020-10-10 04:00:00 19 18 Norte 31 Norte 0 -- -- 90
2020-10-10 03:00:00 19.1 16 Norte 29 Norte 0 -- -- 90
2020-10-10 02:00:00 19.1 14 Norte 29 Norte 0 -- -- 90
2020-10-10 01:00:00 19.3 18 Norte 29 Norte 0 -- -- 90
2020-10-10 00:00:00 19.5 15 Norte 27 Norte 0 -- -- 89
2020-10-09 23:00:00 19.7 17 Norte 32 Norte 0 -- -- 89
2020-10-09 22:00:00 19.7 21 Norte 30 Norte 0 -- -- 88
2020-10-09 21:00:00 19.9 13 Norte 23 Norte 0 -- -- 87
2020-10-09 20:00:00 20.2 13 Noroeste 22 Norte 0 -- -- 85
2020-10-09 19:00:00 21.3 14 Norte 32 Noroeste 0 -- -- 79
2020-10-09 18:00:00 22.4 22 Noroeste 38 Noroeste 0 -- -- 74
2020-10-09 17:00:00 24.1 18 Norte 28 Norte 0 -- -- 63
2020-10-09 16:00:00 25 18 Norte 29 Noroeste 0 -- -- 62
2020-10-09 15:00:00 24.9 20 Noroeste 31 Noroeste 0 -- -- 60
2020-10-09 14:00:00 25.8 14 Noroeste 28 Noroeste 0 -- -- 57
2020-10-09 13:00:00 24.6 20 Noroeste 31 Noroeste 0 -- -- 63
2020-10-09 12:00:00 23.9 18 Norte 27 Norte 0 -- -- 67
2020-10-09 11:00:00 22.6 18 Norte 28 Norte 0 -- -- 78
2020-10-09 10:00:00 21.4 17 Norte 27 Norte 0 -- -- 87
2020-10-09 09:00:00 19.7 14 Norte 21 Norte 0 -- -- 93
2020-10-09 08:00:00 19.5 11 Norte 21 Nordeste 0 -- -- 94
2020-10-09 07:00:00 19.4 12 Norte 25 Norte 0 -- -- 93
2020-10-09 06:00:00 19.4 14 Norte 31 Norte 0 -- -- 91
2020-10-09 05:00:00 19.3 15 Norte 27 Norte 0 -- -- 91
2020-10-09 04:00:00 19.5 15 Norte 27 Norte 0 -- -- 91
2020-10-09 03:00:00 19.8 11 Norte 26 Noroeste 0 -- -- 91
2020-10-09 02:00:00 19.7 15 Norte 27 Norte 0 -- -- 91
2020-10-09 01:00:00 19.7 22 Noroeste 33 Noroeste 0 -- -- 90
2020-10-09 00:00:00 19.9 19 Noroeste 33 Noroeste 0 -- -- 89
2020-10-08 23:00:00 20.1 21 Noroeste 38 Noroeste 0 -- -- 86
2020-10-08 22:00:00 20.1 32 Noroeste 48 Oeste 0 -- -- 89
2020-10-08 21:00:00 20.2 30 Noroeste 44 Noroeste 0 -- -- 88
2020-10-08 20:00:00 20.5 32 Noroeste 44 Oeste 0 -- -- 86
2020-10-08 19:00:00 22.2 23 Noroeste 33 Noroeste 0 -- -- 73
2020-10-08 18:00:00 25.1 14 Noroeste 25 Oeste 0 -- -- 65
2020-10-08 17:00:00 27.3 14 Noroeste 23 Nordeste 0 -- -- 35
2020-10-08 16:00:00 26.5 13 Nordeste 21 Este 0 -- -- 49
2020-10-08 15:00:00 26.1 15 Nordeste 22 Nordeste 0 -- -- 53
2020-10-08 14:00:00 25.8 13 Nordeste 19 Nordeste 0 -- -- 54
2020-10-08 13:00:00 25 10 Nordeste 19 Nordeste 0 -- -- 63
2020-10-08 12:00:00 23.7 9 Nordeste 15 Nordeste 0 -- -- 72
2020-10-08 11:00:00 22.4 9 Nordeste 16 Nordeste 0 -- -- 83
2020-10-08 10:00:00 21 10 Nordeste 14 Nordeste 0 -- -- 92
2020-10-08 09:00:00 19.9 5 Norte 9 Norte 0 -- -- 95
2020-10-08 08:00:00 19.2 5 Norte 9 Norte 0 -- -- 94
2020-10-08 07:00:00 19.3 4 Norte 13 Norte 0 -- -- 93
2020-10-08 06:00:00 19.2 5 Noroeste 16 Norte 0 -- -- 91
2020-10-08 05:00:00 19.1 10 Norte 17 Norte 0 -- -- 90
2020-10-08 04:00:00 19.2 6 Norte 18 Norte 0 -- -- 87
2020-10-08 03:00:00 19.6 10 Norte 18 Norte 0 -- -- 83
2020-10-08 02:00:00 19.5 12 Norte 19 Norte 0 -- -- 68
2020-10-08 01:00:00 18.8 9 Noroeste 10 Noroeste 0 -- -- 80
2020-10-08 00:00:00 19.2 9 Noroeste 14 Norte 0 -- -- 85
2020-10-07 23:00:00 20 4 Norte 14 Norte 0 -- -- 84
2020-10-07 22:00:00 20.1 9 Nordeste 15 Norte 0 -- -- 84
2020-10-07 21:00:00 20.6 3 Noroeste 14 Norte 0 -- -- 77
2020-10-07 20:00:00 20.9 7 Nordeste 17 Nordeste 0 -- -- 73
2020-10-07 19:00:00 21.9 14 Nordeste 21 Nordeste 0 -- -- 74
2020-10-07 18:00:00 22.6 17 Nordeste 23 Nordeste 0 -- -- 73
2020-10-07 17:00:00 24.1 14 Nordeste 22 Nordeste 0 -- -- 64
2020-10-07 16:00:00 24.9 14 Nordeste 22 Nordeste 0 -- -- 59
2020-10-07 15:00:00 24.6 10 Nordeste 25 Nordeste 0 -- -- 65
2020-10-07 14:00:00 24.7 14 Nordeste 22 Nordeste 0 -- -- 66
2020-10-07 13:00:00 24.3 12 Nordeste 30 Norte 0 -- -- 69
2020-10-07 12:00:00 23.5 12 Nordeste 21 Nordeste 0 -- -- 75
2020-10-07 11:00:00 21.4 9 Nordeste 15 Nordeste 0 -- -- 91
2020-10-07 10:00:00 19.7 8 Nordeste 13 Nordeste 0 -- -- 95
2020-10-07 09:00:00 19.1 7 Noroeste 12 Norte 0 -- -- 95
2020-10-07 08:00:00 18.8 2 Nordeste 13 Nordeste 0 -- -- 95
2020-10-07 07:00:00 18.9 4 Nordeste 10 Nordeste 0 -- -- 95
2020-10-07 06:00:00 19 5 Norte 14 Norte 0 -- -- 95
2020-10-07 05:00:00 19 7 Norte 12 Norte 0 -- -- 95
2020-10-07 04:00:00 19 5 Noroeste 10 Norte 0 -- -- 94
2020-10-07 03:00:00 19.1 0 Calma 6 Nordeste 0 -- -- 93
2020-10-07 02:00:00 19.1 3 Nordeste 9 Nordeste 0 -- -- 93
2020-10-07 01:00:00 19.2 5 Este 10 Nordeste 0 -- -- 92
2020-10-07 00:00:00 19.1 4 Este 10 Nordeste 0 -- -- 92
2020-10-06 23:00:00 19.1 6 Este 12 Nordeste 0 -- -- 91
2020-10-06 22:00:00 19.3 5 Nordeste 16 Nordeste 0 -- -- 90
2020-10-06 21:00:00 19.4 10 Nordeste 18 Nordeste 0 -- -- 89
2020-10-06 20:00:00 19.5 11 Nordeste 20 Nordeste 0 -- -- 88
2020-10-06 19:00:00 19.7 11 Nordeste 22 Norte 0 -- -- 85
2020-10-06 18:00:00 20.1 13 Nordeste 24 Nordeste 0 -- -- 81
2020-10-06 17:00:00 20.7 14 Nordeste 28 Nordeste 0 -- -- 79
2020-10-06 16:00:00 20.5 16 Nordeste 30 Nordeste 0 -- -- 80
2020-10-06 15:00:00 20.3 17 Nordeste 28 Nordeste 0 -- -- 81
2020-10-06 14:00:00 20.1 16 Nordeste 26 Nordeste 0 -- -- 81
2020-10-06 13:00:00 20.5 15 Nordeste 28 Nordeste 0 -- -- 77
2020-10-06 12:00:00 20.4 17 Nordeste 27 Este 0 -- -- 80
2020-10-06 11:00:00 19.9 15 Nordeste 27 Nordeste 0 -- -- 82
2020-10-06 10:00:00 19.5 19 Nordeste 27 Nordeste 0 -- -- 82
2020-10-06 09:00:00 19.3 16 Nordeste 24 Nordeste 0 -- -- 84
2020-10-06 08:00:00 18.7 14 Nordeste 24 Este 0 -- -- 86
2020-10-06 07:00:00 18.7 13 Nordeste 26 Nordeste 0 -- -- 86
2020-10-06 06:00:00 18.6 13 Nordeste 24 Nordeste 0 -- -- 87
2020-10-06 05:00:00 18.6 11 Nordeste 23 Nordeste 0 -- -- 87
2020-10-06 04:00:00 18.4 12 Nordeste 24 Nordeste 0 -- -- 85
2020-10-06 03:00:00 18.9 9 Nordeste 19 Nordeste 0 -- -- 83
2020-10-06 02:00:00 18.7 6 Nordeste 18 Norte 0 -- -- 82
2020-10-06 01:00:00 18.7 9 Nordeste 19 Nordeste 0 -- -- 81
2020-10-06 00:00:00 18.4 9 Nordeste 20 Norte 0 -- -- 82
2020-10-05 23:00:00 18.5 8 Norte 21 Norte 0 -- -- 81
2020-10-05 22:00:00 18.8 13 Norte 22 Norte 0 -- -- 81
2020-10-05 21:00:00 19.1 10 Norte 22 Nordeste 0 -- -- 80
2020-10-05 20:00:00 19.5 14 Norte 27 Nordeste 0 -- -- 78
2020-10-05 19:00:00 20 17 Nordeste 29 Nordeste 0 -- -- 80
2020-10-05 18:00:00 20.3 18 Nordeste 30 Nordeste 0 -- -- 80
2020-10-05 17:00:00 21 17 Nordeste 33 Nordeste 0 -- -- 76
2020-10-05 16:00:00 21.7 20 Nordeste 30 Nordeste 0 -- -- 72
2020-10-05 15:00:00 21.9 19 Nordeste 34 Este 0 -- -- 72
2020-10-05 14:00:00 22.6 19 Nordeste 35 Nordeste 0 -- -- 68
2020-10-05 13:00:00 22.2 21 Nordeste 36 Nordeste 0 -- -- 70
2020-10-05 12:00:00 21.4 18 Nordeste 32 Nordeste 0 -- -- 71
2020-10-05 11:00:00 21.6 20 Nordeste 33 Nordeste 0 -- -- 73
2020-10-05 10:00:00 20.3 19 Nordeste 29 Nordeste 0 -- -- 81
2020-10-05 09:00:00 20 14 Nordeste 22 Nordeste 0 -- -- 85
2020-10-05 08:00:00 18.6 9 Nordeste 17 Este 0 -- -- 90
2020-10-05 07:00:00 18.6 9 Este 19 Nordeste 0 -- -- 89
2020-10-05 06:00:00 18.8 10 Nordeste 19 Nordeste 0 -- -- 89
2020-10-05 05:00:00 18.6 8 Nordeste 20 Norte 0 -- -- 89
2020-10-05 04:00:00 18.6 9 Norte 21 Nordeste 0 -- -- 88
2020-10-05 03:00:00 18.7 8 Norte 18 Norte 0 -- -- 88
2020-10-05 02:00:00 18.6 11 Norte 25 Norte 0 -- -- 86
2020-10-05 01:00:00 18.8 14 Norte 24 Nordeste 0 -- -- 84
2020-10-05 00:00:00 19.2 14 Norte 26 Norte 0 -- -- 82
2020-10-04 23:00:00 19.3 13 Norte 24 Norte 0 -- -- 82
2020-10-04 22:00:00 19.5 16 Norte 30 Norte 0 -- -- 80
2020-10-04 21:00:00 19.3 15 Norte 34 Norte 0 -- -- 78
2020-10-04 20:00:00 19.6 22 Norte 34 Norte 0 -- -- 75
2020-10-04 19:00:00 20.2 22 Norte 35 Norte 0 -- -- 76
2020-10-04 18:00:00 21 21 Norte 35 Norte 0 -- -- 72
2020-10-04 17:00:00 21.4 22 Norte 40 Noroeste 0 -- -- 71
2020-10-04 16:00:00 22 27 Noroeste 43 Noroeste 0 -- -- 66
2020-10-04 15:00:00 22.2 21 Norte 40 Norte 0 -- -- 63
2020-10-04 14:00:00 22.2 21 Norte 35 Noroeste 0 -- -- 63
2020-10-04 13:00:00 21.4 22 Norte 32 Norte 0 -- -- 69
2020-10-04 12:00:00 20.9 19 Norte 33 Norte 0 -- -- 75
2020-10-04 11:00:00 20.6 23 Norte 37 Norte 0 -- -- 75
2020-10-04 10:00:00 19.6 14 Norte 23 Norte 0 -- -- 86
2020-10-04 09:00:00 18.8 7 Norte 26 Norte 0 -- -- 91
2020-10-04 08:00:00 18.5 11 Norte 33 Norte 0.2 -- -- 94
2020-10-04 07:00:00 18.6 18 Norte 29 Norte 0 -- -- 96
2020-10-04 06:00:00 18.3 13 Norte 33 Norte 0.6 -- -- 96
2020-10-04 05:00:00 18.4 17 Nordeste 32 Norte 2 -- -- 96
2020-10-04 04:00:00 18.9 21 Norte 34 Norte 1.2 -- -- 95
2020-10-04 03:00:00 19.5 17 Noroeste 34 Norte 0.4 -- -- 94
2020-10-04 02:00:00 19.4 18 Noroeste 32 Noroeste 0.4 -- -- 93
2020-10-04 01:00:00 19.6 17 Noroeste 42 Noroeste 0 -- -- 92
2020-10-04 00:00:00 19.3 23 Noroeste 38 Noroeste 0.2 -- -- 92
2020-10-03 23:00:00 19.4 19 Noroeste 35 Norte 0 -- -- 92
2020-10-03 22:00:00 19.3 15 Noroeste 41 Norte 1 -- -- 92
2020-10-03 21:00:00 19.5 19 Noroeste 35 Noroeste 0.2 -- -- 90
2020-10-03 20:00:00 19.9 21 Norte 39 Noroeste 0.2 -- -- 86
2020-10-03 19:00:00 20.6 23 Norte 37 Norte 0 -- -- 82
2020-10-03 18:00:00 21.3 22 Norte 41 Norte 0 -- -- 78
2020-10-03 17:00:00 22.2 27 Norte 47 Norte 0 -- -- 70
2020-10-03 16:00:00 22.7 29 Norte 45 Norte 0 -- -- 71
2020-10-03 15:00:00 22.3 32 Norte 49 Norte 0 -- -- 77
2020-10-03 14:00:00 23.1 29 Norte 47 Norte 0 -- -- 72
2020-10-03 13:00:00 22.8 27 Norte 52 Noroeste 0 -- -- 75
2020-10-03 12:00:00 23 26 Noroeste 54 Norte 0 -- -- 74
2020-10-03 11:00:00 22.4 29 Noroeste 50 Noroeste 0 -- -- 77
2020-10-03 10:00:00 21.3 26 Noroeste 47 Noroeste 0 -- -- 84
2020-10-03 09:00:00 20.3 28 Noroeste 46 Noroeste 0 -- -- 90
2020-10-03 08:00:00 19.4 23 Noroeste 39 Noroeste 0 -- -- 91
2020-10-03 07:00:00 19.7 20 Noroeste 41 Noroeste 0 -- -- 88
2020-10-03 06:00:00 19.3 25 Noroeste 45 Norte 0.2 -- -- 87
2020-10-03 05:00:00 19.9 28 Noroeste 49 Norte 0 -- -- 86
2020-10-03 04:00:00 20.1 27 Noroeste 39 Noroeste 0 -- -- 83
2020-10-03 03:00:00 19.5 21 Noroeste 39 Noroeste 0 -- -- 83
2020-10-03 02:00:00 19.7 22 Noroeste 42 Norte 0 -- -- 84
2020-10-03 01:00:00 19.8 22 Noroeste 39 Norte 0 -- -- 86
2020-10-03 00:00:00 20.3 24 Noroeste 41 Norte 0 -- -- 78
2020-10-02 23:00:00 20.2 22 Norte 45 Noroeste 0 -- -- 76
2020-10-02 22:00:00 20.1 28 Noroeste 50 Noroeste 0 -- -- 83
2020-10-02 21:00:00 20.2 27 Noroeste 50 Noroeste 0 -- -- 83
2020-10-02 20:00:00 20.3 29 Noroeste 48 Noroeste 0 -- -- 80
2020-10-02 19:00:00 20.9 27 Noroeste 46 Norte 0 -- -- 75
2020-10-02 18:00:00 21.3 33 Noroeste 47 Noroeste 0 -- -- 75
2020-10-02 17:00:00 22 31 Noroeste 55 Norte 0 -- -- 69
2020-10-02 16:00:00 22.1 34 Norte 53 Norte 0 -- -- 68
2020-10-02 15:00:00 23.1 33 Noroeste 47 Noroeste 0 -- -- 62
2020-10-02 14:00:00 23.9 26 Noroeste 50 Norte 0 -- -- 60
2020-10-02 13:00:00 22.5 29 Noroeste 48 Noroeste 0 -- -- 68
2020-10-02 12:00:00 21.3 20 Norte 36 Norte 0 -- -- 83
2020-10-02 11:00:00 20.5 25 Noroeste 39 Noroeste 0 -- -- 81
2020-10-02 10:00:00 21.6 22 Noroeste 40 Norte 0 -- -- 74
2020-10-02 09:00:00 20.7 21 Norte 39 Norte 0 -- -- 75
2020-10-02 08:00:00 19.9 24 Norte 41 Norte 0 -- -- 71
2020-10-02 07:00:00 19.7 21 Norte 36 Norte 0 -- -- 73
2020-10-02 06:00:00 19.6 23 Norte 37 Norte 0 -- -- 72
2020-10-02 05:00:00 19.5 21 Norte 41 Norte 0 -- -- 70
2020-10-02 04:00:00 19.5 22 Norte 34 Norte 0 -- -- 70
2020-10-02 03:00:00 19.9 23 Norte 44 Norte 0 -- -- 73
2020-10-02 02:00:00 20 20 Norte 41 Norte 0 -- -- 78
2020-10-02 01:00:00 20 22 Norte 41 Norte 0 -- -- 79
2020-10-02 00:00:00 20.1 24 Norte 37 Norte 0 -- -- 73
2020-10-01 23:00:00 20 24 Norte 37 Norte 0 -- -- 79
2020-10-01 22:00:00 19.9 18 Norte 35 Nordeste 0 -- -- 76
2020-10-01 21:00:00 20.1 22 Norte 36 Norte 0 -- -- 79
2020-10-01 20:00:00 20.2 22 Norte 36 Norte 0 -- -- 78
2020-10-01 19:00:00 20.6 21 Norte 33 Norte 0 -- -- 76
2020-10-01 18:00:00 20.7 25 Norte 37 Norte 0 -- -- 76
2020-10-01 17:00:00 21.7 22 Norte 39 Norte 0 -- -- 73
2020-10-01 16:00:00 22 19 Norte 36 Norte 0 -- -- 70
2020-10-01 15:00:00 23.4 20 Norte 41 Nordeste 0 -- -- 65
2020-10-01 14:00:00 22.7 22 Norte 38 Nordeste 0 -- -- 67
2020-10-01 13:00:00 22.2 23 Norte 35 Nordeste 0 -- -- 71
2020-10-01 12:00:00 21.8 23 Norte 36 Nordeste 0 -- -- 75
2020-10-01 11:00:00 21.3 23 Norte 38 Nordeste 0 -- -- 78
2020-10-01 10:00:00 21.5 19 Norte 29 Norte 0 -- -- 77
2020-10-01 09:00:00 20.2 13 Norte 23 Norte 0 -- -- 86
2020-10-01 08:00:00 19.3 8 Norte 24 Norte 0 -- -- 87
2020-10-01 07:00:00 19.2 15 Norte 22 Norte 0 -- -- 86
2020-10-01 06:00:00 19.4 15 Norte 22 Norte 0 -- -- 85
2020-10-01 05:00:00 19.1 14 Norte 24 Norte 0 -- -- 85
2020-10-01 04:00:00 19.1 12 Norte 22 Norte 0 -- -- 83
2020-10-01 03:00:00 19.1 12 Norte 22 Norte 0 -- -- 83
2020-10-01 02:00:00 19.5 14 Norte 27 Noroeste 0 -- -- 82
2020-10-01 01:00:00 19.3 15 Noroeste 24 Norte 0 -- -- 82
2020-10-01 00:00:00 19.6 16 Norte 23 Norte 0 -- -- 80